createdAt,value
2023-05-14T00:02:14.610Z,7.03
2023-05-14T00:05:16.320Z,6.97
2023-05-14T00:08:18.039Z,6.80
2023-05-14T00:11:19.780Z,6.57
2023-05-14T00:14:21.532Z,6.57
2023-05-14T00:17:23.357Z,6.83
2023-05-14T00:20:25.325Z,6.37
2023-05-14T00:23:27.143Z,5.77
2023-05-14T00:26:28.828Z,6.30
2023-05-14T00:29:30.589Z,6.70
2023-05-14T00:32:32.732Z,6.50
2023-05-14T00:35:35.771Z,6.33
2023-05-14T00:38:37.470Z,6.40
2023-05-14T00:41:39.216Z,6.27
2023-05-14T00:44:40.898Z,6.50
2023-05-14T00:47:42.675Z,6.97
2023-05-14T00:50:44.414Z,5.93
2023-05-14T00:53:47.313Z,7.03
2023-05-14T00:56:49.162Z,6.30
2023-05-14T00:59:50.871Z,6.10
2023-05-14T01:02:53.007Z,5.80
2023-05-14T01:06:15.489Z,6.77
2023-05-14T01:09:32.483Z,6.37
2023-05-14T01:12:44.653Z,5.97
2023-05-14T01:15:48.056Z,6.60
2023-05-14T01:18:52.558Z,6.60
2023-05-14T01:21:54.540Z,5.97
2023-05-14T01:24:56.216Z,5.87
2023-05-14T01:28:18.180Z,5.90
2023-05-14T01:31:28.699Z,6.37
2023-05-14T01:34:31.638Z,6.57
2023-05-14T01:37:33.466Z,6.47
2023-05-14T01:40:36.999Z,6.23
2023-05-14T01:43:39.310Z,6.47
2023-05-14T01:46:41.236Z,5.60
2023-05-14T01:49:43.050Z,5.83
2023-05-14T01:52:44.962Z,5.77
2023-05-14T01:55:46.698Z,6.80
2023-05-14T01:58:48.811Z,6.47
2023-05-14T02:01:50.876Z,6.67
2023-05-14T02:04:52.681Z,6.93
2023-05-14T02:07:54.505Z,6.23
2023-05-14T02:10:56.408Z,5.93
2023-05-14T02:13:59.407Z,7.07
2023-05-14T02:17:01.135Z,7.10
2023-05-14T02:20:03.632Z,6.60
2023-05-14T02:23:05.322Z,6.70
2023-05-14T02:26:08.393Z,7.10
2023-05-14T02:29:10.165Z,7.27
2023-05-14T02:32:11.912Z,6.87
2023-05-14T02:35:14.272Z,6.90
2023-05-14T02:38:15.998Z,7.13
2023-05-14T02:41:17.681Z,7.53
2023-05-14T02:44:19.392Z,7.03
2023-05-14T02:47:21.419Z,6.83
2023-05-14T02:50:23.365Z,6.67
2023-05-14T02:53:25.267Z,6.50
2023-05-14T02:56:27.047Z,6.33
2023-05-14T02:59:30.056Z,6.20
2023-05-14T03:02:32.482Z,6.53
2023-05-14T03:05:34.649Z,6.70
2023-05-14T03:08:36.463Z,6.83
2023-05-14T03:11:38.227Z,5.63
2023-05-14T03:14:40.076Z,6.23
2023-05-14T03:17:41.807Z,6.70
2023-05-14T03:20:43.614Z,7.13
2023-05-14T03:23:45.992Z,7.57
2023-05-14T03:26:47.748Z,7.07
2023-05-14T03:29:49.485Z,7.13
2023-05-14T03:32:51.330Z,7.03
2023-05-14T03:35:53.091Z,6.83
2023-05-14T03:38:56.196Z,7.57
2023-05-14T03:41:58.860Z,6.47
2023-05-14T03:45:00.768Z,6.90
2023-05-14T03:48:02.778Z,7.13
2023-05-14T03:51:05.955Z,7.20
2023-05-14T03:54:07.831Z,6.60
2023-05-14T03:57:09.581Z,7.43
2023-05-14T04:00:12.004Z,7.50
2023-05-14T04:03:19.333Z,8.53
2023-05-14T04:06:21.872Z,7.37
2023-05-14T04:09:23.552Z,7.53
2023-05-14T04:12:26.661Z,9.00
2023-05-14T04:15:28.452Z,8.27
2023-05-14T04:18:30.773Z,8.10
2023-05-14T04:21:32.486Z,7.60
2023-05-14T04:24:34.215Z,8.47
2023-05-14T04:27:35.958Z,7.93
2023-05-14T04:30:37.779Z,7.97
2023-05-14T04:33:39.824Z,7.67
2023-05-14T04:36:41.610Z,8.03
2023-05-14T04:39:43.556Z,7.37
2023-05-14T04:42:45.350Z,8.27
2023-05-14T04:45:47.025Z,6.83
2023-05-14T04:48:49.269Z,7.63
2023-05-14T04:51:51.098Z,8.40
2023-05-14T04:54:52.877Z,8.27
2023-05-14T04:57:54.593Z,8.30
2023-05-14T05:00:56.394Z,8.37
2023-05-14T05:03:58.435Z,8.33
2023-05-14T05:07:00.180Z,8.97
2023-05-14T05:10:02.487Z,8.43
2023-05-14T05:13:04.212Z,8.70
2023-05-14T05:16:06.311Z,8.00
2023-05-14T05:19:08.097Z,8.53
2023-05-14T05:22:10.319Z,9.20
2023-05-14T05:25:12.903Z,8.60
2023-05-14T05:28:14.685Z,8.83
2023-05-14T05:31:19.046Z,8.70
2023-05-14T05:34:21.647Z,9.27
2023-05-14T05:37:23.378Z,9.93
2023-05-14T05:40:25.664Z,8.80
2023-05-14T05:43:28.513Z,8.53
2023-05-14T05:46:30.280Z,9.67
2023-05-14T05:49:32.054Z,9.17
2023-05-14T05:52:33.755Z,9.20
2023-05-14T05:55:35.624Z,9.37
2023-05-14T05:58:37.467Z,8.23
2023-05-14T06:01:40.653Z,9.33
2023-05-14T06:04:42.402Z,8.63
2023-05-14T06:07:44.067Z,9.90
2023-05-14T06:10:47.581Z,8.80
2023-05-14T06:13:49.534Z,9.03
2023-05-14T06:16:52.479Z,8.93
2023-05-14T06:19:54.289Z,8.30
2023-05-14T06:22:55.972Z,8.63
2023-05-14T06:25:57.707Z,8.20
2023-05-14T06:28:59.386Z,8.23
2023-05-14T06:32:04.902Z,8.50
2023-05-14T06:35:07.283Z,8.00
2023-05-14T06:38:09.037Z,9.03
2023-05-14T06:41:10.699Z,8.57
2023-05-14T06:44:12.402Z,9.57
2023-05-14T06:47:14.094Z,8.27
2023-05-14T06:50:15.848Z,9.30
2023-05-14T06:53:17.647Z,8.03
2023-05-14T06:56:19.362Z,8.60
2023-05-14T06:59:22.970Z,8.33
2023-05-14T07:02:24.680Z,9.07
2023-05-14T07:05:26.500Z,7.83
2023-05-14T07:08:28.138Z,8.13
2023-05-14T07:11:30.106Z,7.83
2023-05-14T07:14:31.780Z,7.80
2023-05-14T07:17:33.597Z,8.50
2023-05-14T07:20:35.452Z,7.27
2023-05-14T07:23:38.315Z,7.67
2023-05-14T07:26:40.096Z,7.33
2023-05-14T07:29:42.215Z,6.70
2023-05-14T07:32:43.953Z,6.67
2023-05-14T07:35:46.070Z,6.83
2023-05-14T07:38:47.840Z,6.93
2023-05-14T07:41:50.091Z,7.50
2023-05-14T07:44:53.050Z,7.47
2023-05-14T07:47:54.822Z,6.30
2023-05-14T07:50:56.577Z,6.20
2023-05-14T07:53:58.235Z,6.33
2023-05-14T07:56:59.934Z,5.70
2023-05-14T08:00:01.907Z,6.67
2023-05-14T08:03:03.827Z,6.53
2023-05-14T08:06:06.165Z,5.80
2023-05-14T08:09:08.623Z,5.83
2023-05-14T08:12:10.293Z,6.00
2023-05-14T08:15:12.544Z,5.40
2023-05-14T08:18:14.288Z,4.97
2023-05-14T08:21:15.992Z,4.87
2023-05-14T08:24:18.852Z,4.97
2023-05-14T08:27:22.373Z,5.13
2023-05-14T08:30:24.305Z,4.80
2023-05-14T08:33:26.228Z,5.00
2023-05-14T08:36:27.941Z,5.03
2023-05-14T08:39:29.708Z,4.47
2023-05-14T08:42:32.167Z,3.67
2023-05-14T08:45:35.102Z,3.73
2023-05-14T08:48:37.863Z,2.77
2023-05-14T08:51:40.649Z,2.93
2023-05-14T08:54:42.444Z,2.87
2023-05-14T08:57:44.459Z,2.80
2023-05-14T09:00:46.226Z,2.57
2023-05-14T09:03:48.533Z,3.17
2023-05-14T09:06:53.564Z,3.33
2023-05-14T09:09:55.732Z,2.93
2023-05-14T09:12:57.539Z,2.73
2023-05-14T09:16:00.658Z,2.90
2023-05-14T09:19:03.156Z,3.07
2023-05-14T09:22:09.694Z,2.63
2023-05-14T09:25:14.622Z,3.00
2023-05-14T09:28:18.808Z,2.93
2023-05-14T09:31:20.722Z,2.70
2023-05-14T09:34:26.119Z,2.10
2023-05-14T09:37:28.601Z,2.17
2023-05-14T09:40:30.450Z,1.90
2023-05-14T09:43:32.124Z,1.73
2023-05-14T09:46:33.853Z,2.33
2023-05-14T09:49:35.523Z,2.40
2023-05-14T09:52:39.092Z,1.57
2023-05-14T09:55:41.517Z,1.80
2023-05-14T09:58:43.287Z,2.17
2023-05-14T10:01:46.216Z,1.97
2023-05-14T10:04:53.022Z,1.80
2023-05-14T10:07:58.427Z,1.40
2023-05-14T10:11:06.159Z,1.60
2023-05-14T10:14:19.089Z,1.97
2023-05-14T10:17:24.990Z,2.05
2023-05-14T10:20:27.703Z,2.00
2023-05-14T10:23:30.581Z,2.30
2023-05-14T10:26:33.269Z,2.00
2023-05-14T10:29:36.489Z,1.92
2023-05-14T10:32:38.518Z,1.63
2023-05-14T10:36:09.949Z,1.35
2023-05-14T10:39:11.618Z,1.58
2023-05-14T10:42:21.984Z,1.70
2023-05-14T10:45:24.083Z,1.88
2023-05-14T10:48:26.541Z,1.98
2023-05-14T10:51:28.264Z,1.83
2023-05-14T10:54:29.991Z,1.95
2023-05-14T10:57:32.585Z,1.50
2023-05-14T11:00:35.710Z,1.52
2023-05-14T11:03:45.815Z,1.45
2023-05-14T11:06:47.601Z,1.67
2023-05-14T11:09:50.637Z,1.90
2023-05-14T11:12:53.568Z,1.67
2023-05-14T11:15:56.640Z,1.58
2023-05-14T11:19:03.537Z,1.73
2023-05-14T11:22:05.590Z,2.15
2023-05-14T11:25:08.605Z,1.90
2023-05-14T11:28:10.412Z,1.88
2023-05-14T11:31:12.143Z,1.63
2023-05-14T11:34:14.101Z,1.88
2023-05-14T11:37:16.739Z,1.55
2023-05-14T11:40:18.798Z,1.73
2023-05-14T11:43:23.485Z,1.23
2023-05-14T11:46:26.072Z,2.05
2023-05-14T11:49:31.798Z,2.08
2023-05-14T11:52:39.167Z,1.48
2023-05-14T11:55:40.838Z,1.50
2023-05-14T11:58:48.476Z,1.80
2023-05-14T12:01:51.710Z,2.05
2023-05-14T12:04:53.786Z,1.63
2023-05-14T12:07:56.191Z,1.70
2023-05-14T12:11:01.517Z,1.40
2023-05-14T12:14:11.311Z,2.05
2023-05-14T12:17:14.972Z,1.60
2023-05-14T12:20:17.353Z,1.85
2023-05-14T12:23:26.959Z,1.67
2023-05-14T12:26:32.215Z,1.90
2023-05-14T12:29:38.977Z,1.83
2023-05-14T12:32:41.442Z,2.33
2023-05-14T12:35:43.245Z,1.70
2023-05-14T12:38:44.912Z,1.67
2023-05-14T12:41:46.754Z,1.70
2023-05-14T12:44:48.445Z,1.95
2023-05-14T12:47:51.094Z,1.58
2023-05-14T12:50:52.959Z,1.70
2023-05-14T12:53:54.871Z,1.60
2023-05-14T12:56:56.558Z,2.08
2023-05-14T12:59:58.298Z,1.70
2023-05-14T13:03:00.018Z,1.38
2023-05-14T13:06:01.792Z,1.40
2023-05-14T13:09:04.108Z,1.73
2023-05-14T13:12:06.334Z,1.10
2023-05-14T13:15:08.671Z,1.45
2023-05-14T13:18:10.485Z,1.58
2023-05-14T13:21:12.632Z,1.38
2023-05-14T13:24:14.310Z,1.27
2023-05-14T13:27:16.089Z,1.30
2023-05-14T13:30:18.474Z,1.30
2023-05-14T13:33:20.257Z,1.27
2023-05-14T13:36:22.005Z,1.40
2023-05-14T13:39:26.902Z,1.50
2023-05-14T13:42:28.650Z,1.40
2023-05-14T13:45:30.441Z,1.20
2023-05-14T13:48:32.377Z,1.40
2023-05-14T13:51:34.168Z,1.63
2023-05-14T13:54:35.834Z,1.30
2023-05-14T13:57:39.255Z,1.10
2023-05-14T14:00:41.135Z,1.30
2023-05-14T14:03:42.794Z,1.00
2023-05-14T14:06:44.439Z,1.30
2023-05-14T14:09:46.133Z,1.52
2023-05-14T14:12:48.244Z,1.35
2023-05-14T14:15:50.305Z,1.50
2023-05-14T14:18:52.286Z,1.10
2023-05-14T14:21:54.017Z,1.25
2023-05-14T14:24:55.687Z,1.30
2023-05-14T14:27:57.453Z,1.20
2023-05-14T14:30:59.144Z,1.10
2023-05-14T14:34:00.834Z,1.30
2023-05-14T14:37:02.809Z,1.45
2023-05-14T14:40:07.221Z,1.30
2023-05-14T14:43:09.016Z,1.90
2023-05-14T14:46:10.987Z,1.35
2023-05-14T14:49:12.835Z,1.23
2023-05-14T14:52:14.522Z,0.93
2023-05-14T14:55:16.174Z,1.45
2023-05-14T14:58:19.403Z,1.23
2023-05-14T15:01:22.710Z,1.70
2023-05-14T15:04:24.574Z,1.65
2023-05-14T15:07:26.289Z,1.90
2023-05-14T15:10:28.833Z,20.38
2023-05-14T15:13:30.602Z,48.55
2023-05-14T15:16:32.308Z,2.85
2023-05-14T15:19:34.049Z,1.73
2023-05-14T15:22:35.734Z,15.32
2023-05-14T15:25:37.429Z,3.72
2023-05-14T15:28:39.125Z,1.67
2023-05-14T15:31:41.216Z,2.03
2023-05-14T15:34:43.135Z,2.22
2023-05-14T15:37:45.062Z,1.85
2023-05-14T15:40:46.896Z,1.50
2023-05-14T15:43:48.669Z,1.50
2023-05-14T15:46:50.754Z,2.35
2023-05-14T15:49:52.770Z,2.08
2023-05-14T15:52:55.523Z,2.72
2023-05-14T15:55:57.212Z,3.88
2023-05-14T15:58:58.936Z,1.63
2023-05-14T16:02:00.663Z,1.42
2023-05-14T16:05:02.752Z,1.40
2023-05-14T16:08:04.505Z,1.20
2023-05-14T16:11:07.707Z,1.30
2023-05-14T16:14:09.553Z,1.27
2023-05-14T16:17:11.475Z,1.15
2023-05-14T16:20:13.187Z,1.40
2023-05-14T16:23:14.825Z,1.27
2023-05-14T16:26:16.552Z,1.38
2023-05-14T16:29:18.328Z,1.50
2023-05-14T16:32:20.250Z,1.52
2023-05-14T16:35:21.973Z,1.20
2023-05-14T16:38:24.577Z,1.63
2023-05-14T16:41:26.261Z,1.20
2023-05-14T16:44:27.913Z,1.52
2023-05-14T16:47:31.188Z,1.30
2023-05-14T16:50:32.963Z,1.33
2023-05-14T16:53:34.615Z,1.48
2023-05-14T16:56:36.579Z,1.58
2023-05-14T16:59:38.280Z,1.50
2023-05-14T17:02:40.017Z,1.50
2023-05-14T17:05:41.772Z,1.40
2023-05-14T17:08:43.462Z,1.70
2023-05-14T17:11:45.195Z,1.55
2023-05-14T17:14:46.843Z,1.60
2023-05-14T17:17:48.534Z,1.55
2023-05-14T17:20:51.019Z,1.33
2023-05-14T17:23:52.725Z,1.77
2023-05-14T17:26:55.524Z,1.48
2023-05-14T17:29:57.296Z,1.73
2023-05-14T17:32:59.115Z,1.73
2023-05-14T17:36:01.078Z,1.90
2023-05-14T17:39:02.758Z,1.52
2023-05-14T17:42:04.792Z,1.63
2023-05-14T17:45:07.236Z,1.63
2023-05-14T17:48:08.985Z,1.67
2023-05-14T17:51:10.674Z,1.52
2023-05-14T17:54:12.357Z,2.58
2023-05-14T17:57:14.175Z,1.92
2023-05-14T18:00:16.093Z,1.50
2023-05-14T18:03:20.117Z,1.90
2023-05-14T18:06:22.087Z,1.48
2023-05-14T18:09:23.737Z,1.27
2023-05-14T18:12:26.538Z,1.67
2023-05-14T18:15:28.258Z,1.50
2023-05-14T18:18:30.756Z,1.15
2023-05-14T18:21:32.491Z,1.80
2023-05-14T18:24:34.218Z,1.30
2023-05-14T18:27:39.419Z,1.30
2023-05-14T18:30:41.291Z,1.23
2023-05-14T18:33:43.105Z,1.75
2023-05-14T18:36:44.826Z,1.50
2023-05-14T18:39:46.479Z,1.40
2023-05-14T18:42:48.300Z,1.40
2023-05-14T18:45:50.193Z,1.70
2023-05-14T18:48:51.950Z,1.20
2023-05-14T18:51:53.675Z,1.48
2023-05-14T18:54:55.376Z,1.77
2023-05-14T18:57:57.452Z,1.80
2023-05-14T19:00:59.169Z,1.87
2023-05-14T19:04:03.123Z,1.60
2023-05-14T19:07:06.986Z,1.80
2023-05-14T19:10:09.814Z,1.70
2023-05-14T19:13:11.662Z,1.95
2023-05-14T19:16:13.644Z,1.77
2023-05-14T19:19:15.399Z,1.87
2023-05-14T19:22:17.371Z,1.70
2023-05-14T19:25:19.021Z,2.00
2023-05-14T19:28:21.164Z,1.50
2023-05-14T19:31:22.856Z,1.87
2023-05-14T19:34:24.554Z,1.90
2023-05-14T19:37:26.268Z,2.30
2023-05-14T19:40:28.738Z,1.60
2023-05-14T19:43:30.471Z,2.17
2023-05-14T19:46:32.178Z,1.80
2023-05-14T19:49:33.905Z,1.90
2023-05-14T19:52:35.574Z,2.07
2023-05-14T19:55:37.741Z,1.87
2023-05-14T19:58:39.409Z,1.43
2023-05-14T20:01:41.696Z,2.10
2023-05-14T20:04:45.835Z,2.20
2023-05-14T20:07:48.780Z,2.20
2023-05-14T20:10:50.646Z,2.10
2023-05-14T20:13:52.303Z,2.10
2023-05-14T20:16:54.031Z,2.27
2023-05-14T20:19:56.316Z,2.53
2023-05-14T20:22:58.132Z,2.03
2023-05-14T20:26:01.712Z,2.17
2023-05-14T20:29:03.952Z,2.30
2023-05-14T20:32:06.189Z,2.20
2023-05-14T20:35:08.087Z,2.23
2023-05-14T20:38:11.246Z,2.00
2023-05-14T20:41:13.002Z,2.03
2023-05-14T20:44:14.685Z,2.53
2023-05-14T20:47:24.215Z,3.33
2023-05-14T20:50:27.741Z,2.67
2023-05-14T20:53:29.430Z,2.60
2023-05-14T20:56:31.197Z,2.20
2023-05-14T20:59:32.856Z,2.27
2023-05-14T21:02:34.862Z,2.80
2023-05-14T21:05:36.608Z,2.90
2023-05-14T21:08:40.251Z,2.30
2023-05-14T21:11:41.900Z,2.50
2023-05-14T21:14:43.590Z,2.17
2023-05-14T21:17:45.818Z,2.40
2023-05-14T21:20:47.539Z,2.30
2023-05-14T21:23:49.732Z,2.70
2023-05-14T21:26:53.481Z,3.47
2023-05-14T21:29:55.347Z,2.20
2023-05-14T21:32:57.131Z,2.60
2023-05-14T21:35:59.051Z,2.50
2023-05-14T21:39:00.901Z,2.50
2023-05-14T21:42:02.600Z,2.80
2023-05-14T21:45:04.702Z,2.80
2023-05-14T21:48:06.853Z,2.73
2023-05-14T21:51:08.608Z,2.60
2023-05-14T21:54:10.390Z,2.50
2023-05-14T21:57:12.115Z,2.53
2023-05-14T22:00:18.382Z,2.90
2023-05-14T22:03:20.133Z,2.77
2023-05-14T22:06:21.874Z,3.07
2023-05-14T22:09:23.534Z,2.67
2023-05-14T22:12:26.060Z,3.03
2023-05-14T22:15:27.847Z,3.23
2023-05-14T22:18:29.672Z,3.10
2023-05-14T22:21:31.337Z,2.73
2023-05-14T22:24:33.139Z,3.17
2023-05-14T22:27:34.810Z,3.43
2023-05-14T22:30:36.518Z,3.60
2023-05-14T22:33:38.226Z,3.63
2023-05-14T22:36:39.905Z,3.53
2023-05-14T22:39:41.793Z,3.50
2023-05-14T22:42:43.602Z,3.50
2023-05-14T22:45:45.314Z,2.77
2023-05-14T22:48:48.998Z,3.23
2023-05-14T22:51:54.113Z,2.77
2023-05-14T22:54:55.776Z,3.63
2023-05-14T22:57:57.461Z,3.27
2023-05-14T23:00:59.195Z,3.77
2023-05-14T23:04:00.893Z,3.83
2023-05-14T23:07:02.593Z,3.60
2023-05-14T23:10:04.700Z,3.73
2023-05-14T23:13:06.394Z,3.20
2023-05-14T23:16:08.257Z,4.07
2023-05-14T23:19:10.191Z,3.67
2023-05-14T23:22:12.503Z,3.90
2023-05-14T23:25:14.215Z,4.20
2023-05-14T23:28:16.730Z,4.80
2023-05-14T23:31:18.528Z,4.40
2023-05-14T23:34:21.909Z,4.27
2023-05-14T23:37:23.744Z,4.37
2023-05-14T23:40:25.518Z,4.17
2023-05-14T23:43:27.218Z,3.87
2023-05-14T23:46:29.363Z,4.17
2023-05-14T23:49:31.231Z,5.50
2023-05-14T23:52:33.157Z,5.70
